Solomons, Maryland
Current Conditions -  °F | °C
As of 10:52 PM on Sunday 23 Nov 2014 (Local Time) from KNHK Reporting Station
Light Rain Light Rain  
Wind Chill: 52°   Ceiling: 2800
Heat Index: 52°   Visibility: 6mi
Dew Point: 50°   Wind: 9mph
Humidity: 93%   Direction: 140°SE
Pressure: 29.88"   Gusts: NA
Location:  38.32°N, 76.46°W
Report Text: KNHK 240352Z AUTO 14008KT 6SM -RA BR BKN028 OVC035 11/10 A2988 RMK AO2 RAB38 SLP117 P0001 T01110100
Loading
Personal Weather Stations






























Interactive Weather Map New forecast layout! Learn more

10-Day Weather Forecast

Advertisements
Track Severe Weather on mobile